createdAt,value
2019-01-19T23:01:59.866Z,28.70
2019-01-19T23:02:59.626Z,28.65
2019-01-19T23:03:59.627Z,28.61
2019-01-19T23:04:59.582Z,28.70
2019-01-19T23:05:59.573Z,28.67
2019-01-19T23:06:59.654Z,28.63
2019-01-19T23:07:59.666Z,28.82
2019-01-19T23:08:59.724Z,28.88
2019-01-19T23:09:59.620Z,28.91
2019-01-19T23:11:01.227Z,28.95
2019-01-19T23:11:59.428Z,28.76
2019-01-19T23:12:59.819Z,28.64
2019-01-19T23:13:59.377Z,28.41
2019-01-19T23:14:59.387Z,28.23
2019-01-19T23:15:59.350Z,28.08
2019-01-19T23:16:59.287Z,28.08
2019-01-19T23:17:59.379Z,27.89
2019-01-19T23:18:59.356Z,27.84
2019-01-19T23:19:59.246Z,27.74
2019-01-19T23:20:59.344Z,27.68
2019-01-19T23:21:59.180Z,27.62
2019-01-19T23:22:59.294Z,27.57
2019-01-19T23:23:59.481Z,27.43
2019-01-19T23:24:59.453Z,27.41
2019-01-19T23:25:59.197Z,27.45
2019-01-19T23:26:59.189Z,27.36
2019-01-19T23:27:59.068Z,27.36
2019-01-19T23:28:59.086Z,27.33
2019-01-19T23:29:59.462Z,27.33
2019-01-19T23:30:59.224Z,27.24
2019-01-19T23:31:59.222Z,27.24
2019-01-19T23:33:01.253Z,27.19
2019-01-19T23:33:59.017Z,27.15
2019-01-19T23:34:59.228Z,27.09
2019-01-19T23:35:59.045Z,27.04
2019-01-19T23:36:58.867Z,27.09
2019-01-19T23:37:58.936Z,27.05
2019-01-19T23:38:59.087Z,26.99
2019-01-19T23:39:59.468Z,26.93
2019-01-19T23:40:58.972Z,26.78
2019-01-19T23:41:59.477Z,26.82
2019-01-19T23:42:59.039Z,26.69
2019-01-19T23:43:59.327Z,26.71
2019-01-19T23:44:59.807Z,26.69
2019-01-19T23:45:58.799Z,26.61
2019-01-19T23:46:58.804Z,26.57
2019-01-19T23:47:58.909Z,26.41
2019-01-19T23:48:58.604Z,26.45
2019-01-19T23:49:58.844Z,26.41
2019-01-19T23:50:58.736Z,26.38
2019-01-19T23:51:58.750Z,26.32
2019-01-19T23:52:58.709Z,26.35
2019-01-19T23:53:58.540Z,26.30
2019-01-19T23:54:58.512Z,26.22
2019-01-19T23:55:58.536Z,26.22
2019-01-19T23:56:58.545Z,26.22
2019-01-19T23:57:58.536Z,26.19
2019-01-19T23:58:58.991Z,26.11
2019-01-19T23:59:58.682Z,26.09
